sensor_id;sensor_type;location;lat;lon;timestamp;P1;durP1;ratioP1;P2;durP2;ratioP2
4432;SDS011;2229;48.708;9.706;2023-07-13T00:02:24;1.57;;;0.67;;
4432;SDS011;2229;48.708;9.706;2023-07-13T00:04:52;2.30;;;1.20;;
4432;SDS011;2229;48.708;9.706;2023-07-13T00:07:19;1.87;;;0.60;;
4432;SDS011;2229;48.708;9.706;2023-07-13T00:09:46;2.63;;;1.13;;
4432;SDS011;2229;48.708;9.706;2023-07-13T00:12:24;3.00;;;0.90;;
4432;SDS011;2229;48.708;9.706;2023-07-13T00:14:52;3.03;;;1.23;;
4432;SDS011;2229;48.708;9.706;2023-07-13T00:17:21;1.83;;;0.70;;
4432;SDS011;2229;48.708;9.706;2023-07-13T00:19:48;2.87;;;1.00;;
4432;SDS011;2229;48.708;9.706;2023-07-13T00:22:15;1.93;;;0.80;;
4432;SDS011;2229;48.708;9.706;2023-07-13T00:24:43;2.13;;;1.17;;
4432;SDS011;2229;48.708;9.706;2023-07-13T00:27:10;2.30;;;0.90;;
4432;SDS011;2229;48.708;9.706;2023-07-13T00:29:37;2.23;;;0.80;;
4432;SDS011;2229;48.708;9.706;2023-07-13T00:32:05;3.63;;;0.97;;
4432;SDS011;2229;48.708;9.706;2023-07-13T00:34:37;1.97;;;1.00;;
4432;SDS011;2229;48.708;9.706;2023-07-13T00:37:04;2.87;;;0.80;;
4432;SDS011;2229;48.708;9.706;2023-07-13T00:39:33;7.30;;;0.90;;
4432;SDS011;2229;48.708;9.706;2023-07-13T00:42:02;1.97;;;0.80;;
4432;SDS011;2229;48.708;9.706;2023-07-13T00:44:30;1.67;;;1.07;;
4432;SDS011;2229;48.708;9.706;2023-07-13T00:46:57;1.53;;;0.80;;
4432;SDS011;2229;48.708;9.706;2023-07-13T00:49:26;5.10;;;0.83;;
4432;SDS011;2229;48.708;9.706;2023-07-13T00:51:57;1.83;;;0.87;;
4432;SDS011;2229;48.708;9.706;2023-07-13T00:54:27;2.23;;;0.80;;
4432;SDS011;2229;48.708;9.706;2023-07-13T00:56:59;1.60;;;0.70;;
4432;SDS011;2229;48.708;9.706;2023-07-13T00:59:29;2.70;;;1.00;;
4432;SDS011;2229;48.708;9.706;2023-07-13T01:01:57;4.03;;;0.80;;
4432;SDS011;2229;48.708;9.706;2023-07-13T01:04:25;1.87;;;0.70;;
4432;SDS011;2229;48.708;9.706;2023-07-13T01:06:54;4.13;;;0.70;;
4432;SDS011;2229;48.708;9.706;2023-07-13T01:09:23;1.63;;;0.90;;
4432;SDS011;2229;48.708;9.706;2023-07-13T01:11:52;1.87;;;0.80;;
4432;SDS011;2229;48.708;9.706;2023-07-13T01:14:19;7.73;;;0.83;;
4432;SDS011;2229;48.708;9.706;2023-07-13T01:16:47;1.97;;;0.90;;
4432;SDS011;2229;48.708;9.706;2023-07-13T01:19:18;2.23;;;0.70;;
4432;SDS011;2229;48.708;9.706;2023-07-13T01:22:03;1.80;;;0.93;;
4432;SDS011;2229;48.708;9.706;2023-07-13T01:24:34;2.80;;;0.63;;
4432;SDS011;2229;48.708;9.706;2023-07-13T01:27:02;1.60;;;0.70;;
4432;SDS011;2229;48.708;9.706;2023-07-13T01:29:31;3.40;;;1.23;;
4432;SDS011;2229;48.708;9.706;2023-07-13T01:32:00;2.57;;;1.17;;
4432;SDS011;2229;48.708;9.706;2023-07-13T01:34:27;1.90;;;0.90;;
4432;SDS011;2229;48.708;9.706;2023-07-13T01:36:54;1.30;;;0.60;;
4432;SDS011;2229;48.708;9.706;2023-07-13T01:39:23;1.60;;;0.63;;
4432;SDS011;2229;48.708;9.706;2023-07-13T01:41:51;2.33;;;1.37;;
4432;SDS011;2229;48.708;9.706;2023-07-13T01:44:19;1.23;;;0.60;;
4432;SDS011;2229;48.708;9.706;2023-07-13T01:46:46;1.93;;;0.80;;
4432;SDS011;2229;48.708;9.706;2023-07-13T01:49:14;3.83;;;0.90;;
4432;SDS011;2229;48.708;9.706;2023-07-13T01:51:42;1.83;;;0.80;;
4432;SDS011;2229;48.708;9.706;2023-07-13T01:54:10;1.77;;;0.70;;
4432;SDS011;2229;48.708;9.706;2023-07-13T01:56:38;2.47;;;1.10;;
4432;SDS011;2229;48.708;9.706;2023-07-13T01:59:07;1.50;;;0.63;;
4432;SDS011;2229;48.708;9.706;2023-07-13T02:01:35;1.70;;;0.77;;
4432;SDS011;2229;48.708;9.706;2023-07-13T02:04:02;3.67;;;1.50;;
4432;SDS011;2229;48.708;9.706;2023-07-13T02:06:32;1.30;;;0.57;;
4432;SDS011;2229;48.708;9.706;2023-07-13T02:08:59;3.03;;;0.80;;
4432;SDS011;2229;48.708;9.706;2023-07-13T02:11:26;2.23;;;0.70;;
4432;SDS011;2229;48.708;9.706;2023-07-13T02:14:00;1.73;;;0.63;;
4432;SDS011;2229;48.708;9.706;2023-07-13T02:16:28;1.60;;;0.60;;
4432;SDS011;2229;48.708;9.706;2023-07-13T02:18:56;1.40;;;0.63;;
4432;SDS011;2229;48.708;9.706;2023-07-13T02:21:23;2.43;;;0.90;;
4432;SDS011;2229;48.708;9.706;2023-07-13T02:23:52;1.63;;;0.83;;
4432;SDS011;2229;48.708;9.706;2023-07-13T02:26:20;1.77;;;0.80;;
4432;SDS011;2229;48.708;9.706;2023-07-13T02:28:47;2.03;;;0.83;;
4432;SDS011;2229;48.708;9.706;2023-07-13T02:31:16;1.97;;;1.10;;
4432;SDS011;2229;48.708;9.706;2023-07-13T02:33:44;1.87;;;0.67;;
4432;SDS011;2229;48.708;9.706;2023-07-13T02:36:12;2.60;;;0.77;;
4432;SDS011;2229;48.708;9.706;2023-07-13T02:38:43;2.57;;;1.03;;
4432;SDS011;2229;48.708;9.706;2023-07-13T02:41:10;1.60;;;0.80;;
4432;SDS011;2229;48.708;9.706;2023-07-13T02:43:38;3.30;;;0.83;;
4432;SDS011;2229;48.708;9.706;2023-07-13T02:46:08;1.50;;;0.50;;
4432;SDS011;2229;48.708;9.706;2023-07-13T02:48:37;2.50;;;1.03;;
4432;SDS011;2229;48.708;9.706;2023-07-13T02:51:05;1.30;;;0.50;;
4432;SDS011;2229;48.708;9.706;2023-07-13T02:53:33;1.97;;;0.73;;
4432;SDS011;2229;48.708;9.706;2023-07-13T02:56:01;1.80;;;0.80;;
4432;SDS011;2229;48.708;9.706;2023-07-13T02:58:29;1.93;;;0.80;;
4432;SDS011;2229;48.708;9.706;2023-07-13T03:00:56;1.30;;;0.57;;
4432;SDS011;2229;48.708;9.706;2023-07-13T03:03:25;1.30;;;0.60;;
4432;SDS011;2229;48.708;9.706;2023-07-13T03:05:59;1.40;;;0.60;;
4432;SDS011;2229;48.708;9.706;2023-07-13T03:08:36;3.30;;;0.73;;
4432;SDS011;2229;48.708;9.706;2023-07-13T03:11:05;2.53;;;0.90;;
4432;SDS011;2229;48.708;9.706;2023-07-13T03:13:36;1.90;;;1.17;;
4432;SDS011;2229;48.708;9.706;2023-07-13T03:16:05;1.60;;;0.70;;
4432;SDS011;2229;48.708;9.706;2023-07-13T03:18:32;1.60;;;0.60;;
4432;SDS011;2229;48.708;9.706;2023-07-13T03:21:04;1.40;;;0.63;;
4432;SDS011;2229;48.708;9.706;2023-07-13T03:23:32;3.30;;;1.57;;
4432;SDS011;2229;48.708;9.706;2023-07-13T03:26:04;1.97;;;0.90;;
4432;SDS011;2229;48.708;9.706;2023-07-13T03:28:32;1.53;;;0.67;;
4432;SDS011;2229;48.708;9.706;2023-07-13T03:31:02;3.87;;;0.90;;
4432;SDS011;2229;48.708;9.706;2023-07-13T03:33:32;1.63;;;0.67;;
4432;SDS011;2229;48.708;9.706;2023-07-13T03:35:59;2.20;;;1.43;;
4432;SDS011;2229;48.708;9.706;2023-07-13T03:38:27;1.90;;;0.83;;
4432;SDS011;2229;48.708;9.706;2023-07-13T03:40:55;3.00;;;0.97;;
4432;SDS011;2229;48.708;9.706;2023-07-13T03:43:22;1.40;;;0.70;;
4432;SDS011;2229;48.708;9.706;2023-07-13T03:45:51;2.80;;;1.20;;
4432;SDS011;2229;48.708;9.706;2023-07-13T03:48:19;12.00;;;4.20;;
4432;SDS011;2229;48.708;9.706;2023-07-13T03:50:47;14.00;;;6.33;;
4432;SDS011;2229;48.708;9.706;2023-07-13T03:53:15;20.07;;;7.70;;
4432;SDS011;2229;48.708;9.706;2023-07-13T03:55:45;15.73;;;5.67;;
4432;SDS011;2229;48.708;9.706;2023-07-13T03:58:23;11.33;;;5.73;;
4432;SDS011;2229;48.708;9.706;2023-07-13T04:00:55;8.30;;;3.47;;
4432;SDS011;2229;48.708;9.706;2023-07-13T04:03:24;6.77;;;2.80;;
4432;SDS011;2229;48.708;9.706;2023-07-13T04:05:54;4.23;;;1.70;;
4432;SDS011;2229;48.708;9.706;2023-07-13T04:08:25;3.03;;;1.17;;
4432;SDS011;2229;48.708;9.706;2023-07-13T04:10:55;8.93;;;3.60;;
4432;SDS011;2229;48.708;9.706;2023-07-13T04:13:23;6.70;;;2.00;;
4432;SDS011;2229;48.708;9.706;2023-07-13T04:15:51;3.60;;;1.30;;
4432;SDS011;2229;48.708;9.706;2023-07-13T04:18:19;6.03;;;1.17;;
4432;SDS011;2229;48.708;9.706;2023-07-13T04:20:47;2.37;;;1.00;;
4432;SDS011;2229;48.708;9.706;2023-07-13T04:23:14;1.73;;;0.80;;
4432;SDS011;2229;48.708;9.706;2023-07-13T04:25:43;2.90;;;1.23;;
4432;SDS011;2229;48.708;9.706;2023-07-13T04:28:12;2.80;;;0.80;;
4432;SDS011;2229;48.708;9.706;2023-07-13T04:30:40;1.40;;;0.60;;
4432;SDS011;2229;48.708;9.706;2023-07-13T04:33:08;2.43;;;1.20;;
4432;SDS011;2229;48.708;9.706;2023-07-13T04:35:35;2.10;;;0.90;;
4432;SDS011;2229;48.708;9.706;2023-07-13T04:38:02;2.73;;;1.00;;
4432;SDS011;2229;48.708;9.706;2023-07-13T04:40:30;3.57;;;0.70;;
4432;SDS011;2229;48.708;9.706;2023-07-13T04:42:57;2.37;;;0.70;;
4432;SDS011;2229;48.708;9.706;2023-07-13T04:45:25;2.20;;;1.30;;
4432;SDS011;2229;48.708;9.706;2023-07-13T04:47:53;1.50;;;0.60;;
4432;SDS011;2229;48.708;9.706;2023-07-13T04:50:20;5.20;;;0.97;;
4432;SDS011;2229;48.708;9.706;2023-07-13T04:52:48;3.40;;;0.60;;
4432;SDS011;2229;48.708;9.706;2023-07-13T04:55:16;1.73;;;0.83;;
4432;SDS011;2229;48.708;9.706;2023-07-13T04:57:44;1.63;;;0.70;;
4432;SDS011;2229;48.708;9.706;2023-07-13T05:00:12;1.70;;;0.93;;
4432;SDS011;2229;48.708;9.706;2023-07-13T05:02:42;1.80;;;0.90;;
4432;SDS011;2229;48.708;9.706;2023-07-13T05:05:10;1.93;;;0.80;;
4432;SDS011;2229;48.708;9.706;2023-07-13T05:07:37;1.60;;;0.63;;
4432;SDS011;2229;48.708;9.706;2023-07-13T05:10:05;2.60;;;0.70;;
4432;SDS011;2229;48.708;9.706;2023-07-13T05:12:33;3.43;;;0.80;;
4432;SDS011;2229;48.708;9.706;2023-07-13T05:15:01;1.50;;;0.80;;
4432;SDS011;2229;48.708;9.706;2023-07-13T05:17:28;1.83;;;0.80;;
4432;SDS011;2229;48.708;9.706;2023-07-13T05:19:57;1.87;;;0.70;;
4432;SDS011;2229;48.708;9.706;2023-07-13T05:22:26;12.40;;;0.97;;
4432;SDS011;2229;48.708;9.706;2023-07-13T05:24:53;3.23;;;1.07;;
4432;SDS011;2229;48.708;9.706;2023-07-13T05:27:20;1.60;;;0.60;;
4432;SDS011;2229;48.708;9.706;2023-07-13T05:29:47;2.33;;;0.80;;
4432;SDS011;2229;48.708;9.706;2023-07-13T05:32:14;1.20;;;0.50;;
4432;SDS011;2229;48.708;9.706;2023-07-13T05:34:44;1.80;;;0.70;;
4432;SDS011;2229;48.708;9.706;2023-07-13T05:37:13;3.20;;;0.97;;
4432;SDS011;2229;48.708;9.706;2023-07-13T05:39:40;5.27;;;0.57;;
4432;SDS011;2229;48.708;9.706;2023-07-13T05:42:08;4.37;;;0.80;;
4432;SDS011;2229;48.708;9.706;2023-07-13T05:44:35;1.30;;;0.60;;
4432;SDS011;2229;48.708;9.706;2023-07-13T05:47:02;1.40;;;0.63;;
4432;SDS011;2229;48.708;9.706;2023-07-13T05:49:29;1.90;;;0.70;;
4432;SDS011;2229;48.708;9.706;2023-07-13T05:51:56;3.93;;;1.00;;
4432;SDS011;2229;48.708;9.706;2023-07-13T05:54:25;2.07;;;0.87;;
4432;SDS011;2229;48.708;9.706;2023-07-13T05:56:53;1.67;;;0.97;;
4432;SDS011;2229;48.708;9.706;2023-07-13T05:59:20;3.00;;;1.00;;
4432;SDS011;2229;48.708;9.706;2023-07-13T06:01:48;2.33;;;0.80;;
4432;SDS011;2229;48.708;9.706;2023-07-13T06:04:18;2.17;;;0.80;;
4432;SDS011;2229;48.708;9.706;2023-07-13T06:06:45;1.23;;;0.50;;
4432;SDS011;2229;48.708;9.706;2023-07-13T06:09:12;2.10;;;0.93;;
4432;SDS011;2229;48.708;9.706;2023-07-13T06:11:42;1.40;;;0.53;;
4432;SDS011;2229;48.708;9.706;2023-07-13T06:14:09;1.23;;;0.60;;
4432;SDS011;2229;48.708;9.706;2023-07-13T06:16:36;1.97;;;0.83;;
4432;SDS011;2229;48.708;9.706;2023-07-13T06:19:03;1.63;;;0.87;;
4432;SDS011;2229;48.708;9.706;2023-07-13T06:21:31;1.60;;;0.80;;
4432;SDS011;2229;48.708;9.706;2023-07-13T06:23:58;6.83;;;1.57;;
4432;SDS011;2229;48.708;9.706;2023-07-13T06:26:27;1.90;;;0.90;;
4432;SDS011;2229;48.708;9.706;2023-07-13T06:28:56;2.30;;;0.93;;
4432;SDS011;2229;48.708;9.706;2023-07-13T06:31:23;2.90;;;1.33;;
4432;SDS011;2229;48.708;9.706;2023-07-13T06:33:51;1.77;;;1.00;;
4432;SDS011;2229;48.708;9.706;2023-07-13T06:36:18;1.87;;;1.00;;
4432;SDS011;2229;48.708;9.706;2023-07-13T06:38:45;1.53;;;0.73;;
4432;SDS011;2229;48.708;9.706;2023-07-13T06:41:12;2.60;;;1.13;;
4432;SDS011;2229;48.708;9.706;2023-07-13T06:43:40;2.73;;;0.90;;
4432;SDS011;2229;48.708;9.706;2023-07-13T06:46:08;2.13;;;0.70;;
4432;SDS011;2229;48.708;9.706;2023-07-13T06:48:36;3.33;;;1.03;;
4432;SDS011;2229;48.708;9.706;2023-07-13T06:51:03;2.43;;;0.80;;
4432;SDS011;2229;48.708;9.706;2023-07-13T06:53:31;2.30;;;0.90;;
4432;SDS011;2229;48.708;9.706;2023-07-13T06:55:58;1.50;;;0.80;;
4432;SDS011;2229;48.708;9.706;2023-07-13T06:58:25;3.53;;;1.17;;
4432;SDS011;2229;48.708;9.706;2023-07-13T07:00:53;1.70;;;1.00;;
4432;SDS011;2229;48.708;9.706;2023-07-13T07:03:21;1.40;;;0.70;;
4432;SDS011;2229;48.708;9.706;2023-07-13T07:05:49;3.43;;;1.70;;
4432;SDS011;2229;48.708;9.706;2023-07-13T07:08:16;2.00;;;0.90;;
4432;SDS011;2229;48.708;9.706;2023-07-13T07:10:43;1.40;;;0.50;;
4432;SDS011;2229;48.708;9.706;2023-07-13T07:13:10;2.63;;;0.90;;
4432;SDS011;2229;48.708;9.706;2023-07-13T07:15:38;3.10;;;0.90;;
4432;SDS011;2229;48.708;9.706;2023-07-13T07:18:06;2.03;;;0.97;;
4432;SDS011;2229;48.708;9.706;2023-07-13T07:20:34;1.57;;;0.73;;
4432;SDS011;2229;48.708;9.706;2023-07-13T07:23:02;1.70;;;0.63;;
4432;SDS011;2229;48.708;9.706;2023-07-13T07:25:29;2.13;;;1.00;;
4432;SDS011;2229;48.708;9.706;2023-07-13T07:27:57;1.60;;;0.80;;
4432;SDS011;2229;48.708;9.706;2023-07-13T07:30:24;1.50;;;0.70;;
4432;SDS011;2229;48.708;9.706;2023-07-13T07:32:51;2.03;;;1.00;;
4432;SDS011;2229;48.708;9.706;2023-07-13T07:35:18;1.50;;;0.70;;
4432;SDS011;2229;48.708;9.706;2023-07-13T07:37:47;1.80;;;0.87;;
4432;SDS011;2229;48.708;9.706;2023-07-13T07:40:14;8.73;;;0.90;;
4432;SDS011;2229;48.708;9.706;2023-07-13T07:42:42;2.53;;;0.70;;
4432;SDS011;2229;48.708;9.706;2023-07-13T07:45:09;2.07;;;0.90;;
4432;SDS011;2229;48.708;9.706;2023-07-13T07:47:37;1.30;;;0.63;;
4432;SDS011;2229;48.708;9.706;2023-07-13T07:50:05;2.10;;;0.90;;
4432;SDS011;2229;48.708;9.706;2023-07-13T07:52:33;4.30;;;1.60;;
4432;SDS011;2229;48.708;9.706;2023-07-13T07:55:03;1.63;;;0.73;;
4432;SDS011;2229;48.708;9.706;2023-07-13T07:57:31;5.30;;;1.03;;
4432;SDS011;2229;48.708;9.706;2023-07-13T07:59:59;1.83;;;0.80;;
4432;SDS011;2229;48.708;9.706;2023-07-13T08:02:27;2.37;;;1.00;;
4432;SDS011;2229;48.708;9.706;2023-07-13T08:04:55;1.80;;;0.70;;
4432;SDS011;2229;48.708;9.706;2023-07-13T08:07:22;2.97;;;0.90;;
4432;SDS011;2229;48.708;9.706;2023-07-13T08:09:51;4.13;;;0.80;;
4432;SDS011;2229;48.708;9.706;2023-07-13T08:12:20;1.40;;;0.70;;
4432;SDS011;2229;48.708;9.706;2023-07-13T08:14:49;1.93;;;0.80;;
4432;SDS011;2229;48.708;9.706;2023-07-13T08:17:19;2.13;;;0.90;;
4432;SDS011;2229;48.708;9.706;2023-07-13T08:19:46;1.97;;;0.80;;
4432;SDS011;2229;48.708;9.706;2023-07-13T08:22:13;1.57;;;0.70;;
4432;SDS011;2229;48.708;9.706;2023-07-13T08:24:40;3.03;;;0.60;;
4432;SDS011;2229;48.708;9.706;2023-07-13T08:27:08;1.60;;;0.83;;
4432;SDS011;2229;48.708;9.706;2023-07-13T08:29:38;1.10;;;0.50;;
4432;SDS011;2229;48.708;9.706;2023-07-13T08:32:06;1.20;;;0.70;;
4432;SDS011;2229;48.708;9.706;2023-07-13T08:34:36;2.10;;;0.73;;
4432;SDS011;2229;48.708;9.706;2023-07-13T08:37:03;3.00;;;0.80;;
4432;SDS011;2229;48.708;9.706;2023-07-13T08:39:31;2.47;;;0.80;;
4432;SDS011;2229;48.708;9.706;2023-07-13T08:42:00;1.70;;;0.70;;
4432;SDS011;2229;48.708;9.706;2023-07-13T08:44:36;1.43;;;0.67;;
4432;SDS011;2229;48.708;9.706;2023-07-13T08:47:16;1.30;;;0.60;;
4432;SDS011;2229;48.708;9.706;2023-07-13T08:49:45;1.70;;;0.57;;
4432;SDS011;2229;48.708;9.706;2023-07-13T08:52:13;2.63;;;0.50;;
4432;SDS011;2229;48.708;9.706;2023-07-13T08:54:48;1.00;;;0.40;;
4432;SDS011;2229;48.708;9.706;2023-07-13T08:57:20;1.30;;;0.60;;
4432;SDS011;2229;48.708;9.706;2023-07-13T08:59:51;5.93;;;0.63;;
4432;SDS011;2229;48.708;9.706;2023-07-13T09:02:23;1.20;;;0.50;;
4432;SDS011;2229;48.708;9.706;2023-07-13T09:04:54;1.20;;;0.50;;
4432;SDS011;2229;48.708;9.706;2023-07-13T09:07:32;1.20;;;0.50;;
4432;SDS011;2229;48.708;9.706;2023-07-13T09:10:19;2.53;;;0.60;;
4432;SDS011;2229;48.708;9.706;2023-07-13T09:12:56;1.10;;;0.40;;
4432;SDS011;2229;48.708;9.706;2023-07-13T09:15:40;1.47;;;0.57;;
4432;SDS011;2229;48.708;9.706;2023-07-13T09:18:10;2.60;;;0.60;;
4432;SDS011;2229;48.708;9.706;2023-07-13T09:20:44;1.40;;;0.77;;
4432;SDS011;2229;48.708;9.706;2023-07-13T09:23:16;3.83;;;0.70;;
4432;SDS011;2229;48.708;9.706;2023-07-13T09:25:47;2.60;;;0.70;;
4432;SDS011;2229;48.708;9.706;2023-07-13T09:28:22;2.80;;;0.60;;
4432;SDS011;2229;48.708;9.706;2023-07-13T09:30:54;1.47;;;0.50;;
4432;SDS011;2229;48.708;9.706;2023-07-13T09:33:27;1.23;;;0.53;;
4432;SDS011;2229;48.708;9.706;2023-07-13T09:35:56;1.30;;;0.60;;
4432;SDS011;2229;48.708;9.706;2023-07-13T09:38:24;4.53;;;0.77;;
4432;SDS011;2229;48.708;9.706;2023-07-13T09:40:58;2.23;;;0.90;;
4432;SDS011;2229;48.708;9.706;2023-07-13T09:43:34;1.70;;;0.67;;
4432;SDS011;2229;48.708;9.706;2023-07-13T09:46:03;1.20;;;0.50;;
4432;SDS011;2229;48.708;9.706;2023-07-13T09:48:34;1.23;;;0.50;;
4432;SDS011;2229;48.708;9.706;2023-07-13T09:51:06;1.23;;;0.60;;
4432;SDS011;2229;48.708;9.706;2023-07-13T09:53:39;2.57;;;0.63;;
4432;SDS011;2229;48.708;9.706;2023-07-13T09:56:18;1.47;;;0.60;;
4432;SDS011;2229;48.708;9.706;2023-07-13T09:58:47;2.50;;;0.50;;
4432;SDS011;2229;48.708;9.706;2023-07-13T10:01:16;1.87;;;0.50;;
4432;SDS011;2229;48.708;9.706;2023-07-13T10:03:59;1.30;;;0.50;;
4432;SDS011;2229;48.708;9.706;2023-07-13T10:06:26;1.63;;;0.70;;
4432;SDS011;2229;48.708;9.706;2023-07-13T10:08:55;1.27;;;0.40;;
4432;SDS011;2229;48.708;9.706;2023-07-13T10:11:24;1.67;;;0.70;;
4432;SDS011;2229;48.708;9.706;2023-07-13T10:13:55;1.40;;;0.50;;
4432;SDS011;2229;48.708;9.706;2023-07-13T10:16:27;3.57;;;0.70;;
4432;SDS011;2229;48.708;9.706;2023-07-13T10:18:58;2.90;;;1.17;;
4432;SDS011;2229;48.708;9.706;2023-07-13T10:21:29;1.87;;;0.60;;
4432;SDS011;2229;48.708;9.706;2023-07-13T10:24:02;1.80;;;0.70;;
4432;SDS011;2229;48.708;9.706;2023-07-13T10:26:33;1.57;;;0.63;;
4432;SDS011;2229;48.708;9.706;2023-07-13T10:29:02;1.60;;;0.60;;
4432;SDS011;2229;48.708;9.706;2023-07-13T10:31:39;2.50;;;1.00;;
4432;SDS011;2229;48.708;9.706;2023-07-13T10:34:08;3.17;;;0.73;;
4432;SDS011;2229;48.708;9.706;2023-07-13T10:36:39;1.73;;;0.50;;
4432;SDS011;2229;48.708;9.706;2023-07-13T10:39:10;1.10;;;0.50;;
4432;SDS011;2229;48.708;9.706;2023-07-13T10:41:44;1.40;;;0.50;;
4432;SDS011;2229;48.708;9.706;2023-07-13T10:44:18;1.87;;;0.73;;
4432;SDS011;2229;48.708;9.706;2023-07-13T10:46:57;1.83;;;1.17;;
4432;SDS011;2229;48.708;9.706;2023-07-13T10:49:26;2.03;;;0.80;;
4432;SDS011;2229;48.708;9.706;2023-07-13T10:51:56;1.77;;;1.23;;
4432;SDS011;2229;48.708;9.706;2023-07-13T10:54:26;1.50;;;0.50;;
4432;SDS011;2229;48.708;9.706;2023-07-13T10:59:45;4.90;;;2.47;;
4432;SDS011;2229;48.708;9.706;2023-07-13T11:02:20;1.20;;;0.60;;
4432;SDS011;2229;48.708;9.706;2023-07-13T11:04:52;2.17;;;0.67;;
4432;SDS011;2229;48.708;9.706;2023-07-13T11:07:22;1.40;;;0.57;;
4432;SDS011;2229;48.708;9.706;2023-07-13T11:09:52;2.30;;;0.60;;
4432;SDS011;2229;48.708;9.706;2023-07-13T11:15:32;1.13;;;0.53;;
4432;SDS011;2229;48.708;9.706;2023-07-13T11:18:20;1.67;;;0.63;;
4432;SDS011;2229;48.708;9.706;2023-07-13T11:20:50;1.10;;;0.50;;
4432;SDS011;2229;48.708;9.706;2023-07-13T11:23:20;1.50;;;0.67;;
4432;SDS011;2229;48.708;9.706;2023-07-13T11:25:55;1.80;;;0.60;;
4432;SDS011;2229;48.708;9.706;2023-07-13T11:28:24;1.77;;;0.80;;
4432;SDS011;2229;48.708;9.706;2023-07-13T11:31:03;3.17;;;0.67;;
4432;SDS011;2229;48.708;9.706;2023-07-13T11:36:36;2.07;;;0.60;;
4432;SDS011;2229;48.708;9.706;2023-07-13T11:39:12;1.83;;;0.50;;
4432;SDS011;2229;48.708;9.706;2023-07-13T11:41:48;1.47;;;0.50;;
4432;SDS011;2229;48.708;9.706;2023-07-13T11:44:18;1.57;;;0.77;;
4432;SDS011;2229;48.708;9.706;2023-07-13T11:46:46;2.20;;;0.57;;
4432;SDS011;2229;48.708;9.706;2023-07-13T11:49:19;1.30;;;0.70;;
4432;SDS011;2229;48.708;9.706;2023-07-13T11:51:47;1.37;;;0.60;;
4432;SDS011;2229;48.708;9.706;2023-07-13T11:54:23;4.10;;;0.70;;
4432;SDS011;2229;48.708;9.706;2023-07-13T11:56:53;3.57;;;0.70;;
4432;SDS011;2229;48.708;9.706;2023-07-13T11:59:21;2.03;;;0.50;;
4432;SDS011;2229;48.708;9.706;2023-07-13T12:01:51;6.70;;;1.23;;
4432;SDS011;2229;48.708;9.706;2023-07-13T12:04:23;2.40;;;0.50;;
4432;SDS011;2229;48.708;9.706;2023-07-13T12:06:56;1.40;;;0.70;;
4432;SDS011;2229;48.708;9.706;2023-07-13T12:09:29;1.30;;;0.50;;
4432;SDS011;2229;48.708;9.706;2023-07-13T12:11:57;1.43;;;0.80;;
4432;SDS011;2229;48.708;9.706;2023-07-13T12:14:26;2.60;;;0.73;;
4432;SDS011;2229;48.708;9.706;2023-07-13T12:16:54;1.50;;;0.83;;
4432;SDS011;2229;48.708;9.706;2023-07-13T12:19:25;2.17;;;1.07;;
4432;SDS011;2229;48.708;9.706;2023-07-13T12:21:54;1.30;;;0.70;;
4432;SDS011;2229;48.708;9.706;2023-07-13T12:24:24;2.60;;;0.50;;
4432;SDS011;2229;48.708;9.706;2023-07-13T12:26:53;1.30;;;0.67;;
4432;SDS011;2229;48.708;9.706;2023-07-13T12:29:25;1.60;;;0.77;;
4432;SDS011;2229;48.708;9.706;2023-07-13T12:31:54;8.23;;;1.93;;
4432;SDS011;2229;48.708;9.706;2023-07-13T12:34:22;1.57;;;0.60;;
4432;SDS011;2229;48.708;9.706;2023-07-13T12:36:53;4.40;;;0.80;;
4432;SDS011;2229;48.708;9.706;2023-07-13T12:39:30;1.30;;;0.60;;
4432;SDS011;2229;48.708;9.706;2023-07-13T12:42:10;1.20;;;0.60;;
4432;SDS011;2229;48.708;9.706;2023-07-13T12:44:46;2.50;;;0.60;;
4432;SDS011;2229;48.708;9.706;2023-07-13T12:47:14;2.03;;;0.70;;
4432;SDS011;2229;48.708;9.706;2023-07-13T12:49:47;1.87;;;0.60;;
4432;SDS011;2229;48.708;9.706;2023-07-13T12:52:17;1.33;;;0.60;;
4432;SDS011;2229;48.708;9.706;2023-07-13T12:54:54;1.83;;;0.90;;
4432;SDS011;2229;48.708;9.706;2023-07-13T12:57:23;2.07;;;0.70;;
4432;SDS011;2229;48.708;9.706;2023-07-13T12:59:52;2.60;;;0.77;;
4432;SDS011;2229;48.708;9.706;2023-07-13T13:02:26;2.10;;;0.90;;
4432;SDS011;2229;48.708;9.706;2023-07-13T13:04:57;2.20;;;0.60;;
4432;SDS011;2229;48.708;9.706;2023-07-13T13:07:25;1.90;;;0.83;;
4432;SDS011;2229;48.708;9.706;2023-07-13T13:09:52;1.53;;;0.70;;
4432;SDS011;2229;48.708;9.706;2023-07-13T13:12:20;2.17;;;0.87;;
4432;SDS011;2229;48.708;9.706;2023-07-13T13:14:49;1.10;;;0.50;;
4432;SDS011;2229;48.708;9.706;2023-07-13T13:17:18;1.33;;;0.67;;
4432;SDS011;2229;48.708;9.706;2023-07-13T13:19:49;1.87;;;0.80;;
4432;SDS011;2229;48.708;9.706;2023-07-13T13:22:19;1.77;;;0.90;;
4432;SDS011;2229;48.708;9.706;2023-07-13T13:24:47;1.93;;;0.63;;
4432;SDS011;2229;48.708;9.706;2023-07-13T13:27:18;2.83;;;0.60;;
4432;SDS011;2229;48.708;9.706;2023-07-13T13:29:49;3.37;;;0.90;;
4432;SDS011;2229;48.708;9.706;2023-07-13T13:32:17;1.60;;;0.80;;
4432;SDS011;2229;48.708;9.706;2023-07-13T13:34:45;1.60;;;0.63;;
4432;SDS011;2229;48.708;9.706;2023-07-13T13:37:16;1.60;;;0.60;;
4432;SDS011;2229;48.708;9.706;2023-07-13T13:39:46;2.13;;;0.67;;
4432;SDS011;2229;48.708;9.706;2023-07-13T13:42:14;1.13;;;0.60;;
4432;SDS011;2229;48.708;9.706;2023-07-13T13:44:42;1.83;;;0.87;;
4432;SDS011;2229;48.708;9.706;2023-07-13T13:47:17;1.83;;;0.80;;
4432;SDS011;2229;48.708;9.706;2023-07-13T13:49:52;2.07;;;0.83;;
4432;SDS011;2229;48.708;9.706;2023-07-13T13:52:20;1.80;;;0.70;;
4432;SDS011;2229;48.708;9.706;2023-07-13T13:54:48;2.10;;;0.67;;
4432;SDS011;2229;48.708;9.706;2023-07-13T13:57:21;2.70;;;1.10;;
4432;SDS011;2229;48.708;9.706;2023-07-13T13:59:49;2.03;;;0.70;;
4432;SDS011;2229;48.708;9.706;2023-07-13T14:02:22;1.10;;;0.50;;
4432;SDS011;2229;48.708;9.706;2023-07-13T14:04:52;3.93;;;0.80;;
4432;SDS011;2229;48.708;9.706;2023-07-13T14:07:22;3.00;;;0.70;;
4432;SDS011;2229;48.708;9.706;2023-07-13T14:09:52;1.30;;;0.40;;
4432;SDS011;2229;48.708;9.706;2023-07-13T14:12:22;1.10;;;0.53;;
4432;SDS011;2229;48.708;9.706;2023-07-13T14:14:51;3.73;;;0.80;;
4432;SDS011;2229;48.708;9.706;2023-07-13T14:17:19;6.43;;;0.90;;
4432;SDS011;2229;48.708;9.706;2023-07-13T14:19:49;2.57;;;0.80;;
4432;SDS011;2229;48.708;9.706;2023-07-13T14:22:22;2.37;;;1.30;;
4432;SDS011;2229;48.708;9.706;2023-07-13T14:24:52;1.10;;;0.57;;
4432;SDS011;2229;48.708;9.706;2023-07-13T14:27:20;2.10;;;0.70;;
4432;SDS011;2229;48.708;9.706;2023-07-13T14:29:47;1.20;;;0.63;;
4432;SDS011;2229;48.708;9.706;2023-07-13T14:32:14;1.60;;;0.80;;
4432;SDS011;2229;48.708;9.706;2023-07-13T14:34:43;1.50;;;0.53;;
4432;SDS011;2229;48.708;9.706;2023-07-13T14:37:12;2.30;;;0.80;;
4432;SDS011;2229;48.708;9.706;2023-07-13T14:39:42;1.40;;;0.77;;
4432;SDS011;2229;48.708;9.706;2023-07-13T14:42:12;3.27;;;1.10;;
4432;SDS011;2229;48.708;9.706;2023-07-13T14:44:39;1.60;;;0.80;;
4432;SDS011;2229;48.708;9.706;2023-07-13T14:47:07;1.33;;;0.60;;
4432;SDS011;2229;48.708;9.706;2023-07-13T14:49:37;1.70;;;0.60;;
4432;SDS011;2229;48.708;9.706;2023-07-13T14:52:09;1.70;;;0.70;;
4432;SDS011;2229;48.708;9.706;2023-07-13T14:54:38;2.40;;;1.00;;
4432;SDS011;2229;48.708;9.706;2023-07-13T14:57:09;1.53;;;0.50;;
4432;SDS011;2229;48.708;9.706;2023-07-13T14:59:39;1.40;;;0.60;;
4432;SDS011;2229;48.708;9.706;2023-07-13T15:02:13;1.93;;;0.70;;
4432;SDS011;2229;48.708;9.706;2023-07-13T15:04:43;1.40;;;0.60;;
4432;SDS011;2229;48.708;9.706;2023-07-13T15:07:11;1.90;;;0.63;;
4432;SDS011;2229;48.708;9.706;2023-07-13T15:09:38;2.23;;;1.10;;
4432;SDS011;2229;48.708;9.706;2023-07-13T15:12:06;1.60;;;0.70;;
4432;SDS011;2229;48.708;9.706;2023-07-13T15:14:34;1.70;;;0.60;;
4432;SDS011;2229;48.708;9.706;2023-07-13T15:17:02;1.40;;;0.80;;
4432;SDS011;2229;48.708;9.706;2023-07-13T15:19:30;1.20;;;0.53;;
4432;SDS011;2229;48.708;9.706;2023-07-13T15:21:58;2.53;;;0.83;;
4432;SDS011;2229;48.708;9.706;2023-07-13T15:24:25;2.63;;;0.77;;
4432;SDS011;2229;48.708;9.706;2023-07-13T15:26:53;3.77;;;1.00;;
4432;SDS011;2229;48.708;9.706;2023-07-13T15:29:20;1.47;;;0.50;;
4432;SDS011;2229;48.708;9.706;2023-07-13T15:31:48;8.87;;;0.70;;
4432;SDS011;2229;48.708;9.706;2023-07-13T15:34:18;1.43;;;0.80;;
4432;SDS011;2229;48.708;9.706;2023-07-13T15:36:51;1.40;;;0.50;;
4432;SDS011;2229;48.708;9.706;2023-07-13T15:39:18;2.60;;;1.27;;